sensor_id;sensor_type;location;lat;lon;timestamp;P1;durP1;ratioP1;P2;durP2;ratioP2
22780;SDS011;11557;50.884;4.322;2024-03-06T00:01:52;6.63;;;4.97;;
22780;SDS011;11557;50.884;4.322;2024-03-06T00:04:18;7.03;;;4.78;;
22780;SDS011;11557;50.884;4.322;2024-03-06T00:06:44;6.40;;;5.00;;
22780;SDS011;11557;50.884;4.322;2024-03-06T00:09:09;6.20;;;4.70;;
22780;SDS011;11557;50.884;4.322;2024-03-06T00:11:35;8.27;;;4.82;;
22780;SDS011;11557;50.884;4.322;2024-03-06T00:14:04;5.05;;;4.40;;
22780;SDS011;11557;50.884;4.322;2024-03-06T00:16:30;9.98;;;5.47;;
22780;SDS011;11557;50.884;4.322;2024-03-06T00:18:56;10.65;;;4.90;;
22780;SDS011;11557;50.884;4.322;2024-03-06T00:21:22;8.18;;;5.40;;
22780;SDS011;11557;50.884;4.322;2024-03-06T00:23:48;8.77;;;4.32;;
22780;SDS011;11557;50.884;4.322;2024-03-06T00:26:13;10.48;;;4.95;;
22780;SDS011;11557;50.884;4.322;2024-03-06T00:28:39;6.25;;;5.13;;
22780;SDS011;11557;50.884;4.322;2024-03-06T00:31:05;6.60;;;5.05;;
22780;SDS011;11557;50.884;4.322;2024-03-06T00:33:31;7.95;;;4.95;;
22780;SDS011;11557;50.884;4.322;2024-03-06T00:35:56;10.18;;;5.00;;
22780;SDS011;11557;50.884;4.322;2024-03-06T00:38:22;10.50;;;5.40;;
22780;SDS011;11557;50.884;4.322;2024-03-06T00:40:48;7.32;;;5.30;;
22780;SDS011;11557;50.884;4.322;2024-03-06T00:43:13;6.93;;;5.32;;
22780;SDS011;11557;50.884;4.322;2024-03-06T00:45:39;6.70;;;5.18;;
22780;SDS011;11557;50.884;4.322;2024-03-06T00:48:05;8.02;;;5.47;;
22780;SDS011;11557;50.884;4.322;2024-03-06T00:50:31;7.45;;;5.38;;
22780;SDS011;11557;50.884;4.322;2024-03-06T00:52:57;7.22;;;5.38;;
22780;SDS011;11557;50.884;4.322;2024-03-06T00:55:23;6.18;;;5.10;;
22780;SDS011;11557;50.884;4.322;2024-03-06T00:57:48;7.90;;;5.47;;
22780;SDS011;11557;50.884;4.322;2024-03-06T01:00:14;8.85;;;5.80;;
22780;SDS011;11557;50.884;4.322;2024-03-06T01:02:41;8.25;;;5.40;;
22780;SDS011;11557;50.884;4.322;2024-03-06T01:05:07;9.30;;;5.40;;
22780;SDS011;11557;50.884;4.322;2024-03-06T01:07:34;6.70;;;5.28;;
22780;SDS011;11557;50.884;4.322;2024-03-06T01:10:02;6.70;;;5.03;;
22780;SDS011;11557;50.884;4.322;2024-03-06T01:12:28;6.38;;;5.07;;
22780;SDS011;11557;50.884;4.322;2024-03-06T01:14:54;5.95;;;4.70;;
22780;SDS011;11557;50.884;4.322;2024-03-06T01:17:20;8.55;;;5.13;;
22780;SDS011;11557;50.884;4.322;2024-03-06T01:19:45;7.57;;;5.20;;
22780;SDS011;11557;50.884;4.322;2024-03-06T01:22:11;7.90;;;5.70;;
22780;SDS011;11557;50.884;4.322;2024-03-06T01:24:40;9.38;;;5.82;;
22780;SDS011;11557;50.884;4.322;2024-03-06T01:27:06;7.78;;;5.60;;
22780;SDS011;11557;50.884;4.322;2024-03-06T01:29:32;8.05;;;5.45;;
22780;SDS011;11557;50.884;4.322;2024-03-06T01:31:58;9.00;;;5.57;;
22780;SDS011;11557;50.884;4.322;2024-03-06T01:34:24;9.77;;;6.07;;
22780;SDS011;11557;50.884;4.322;2024-03-06T01:36:53;7.78;;;5.28;;
22780;SDS011;11557;50.884;4.322;2024-03-06T01:39:19;7.85;;;5.70;;
22780;SDS011;11557;50.884;4.322;2024-03-06T01:41:48;10.35;;;6.55;;
22780;SDS011;11557;50.884;4.322;2024-03-06T01:44:15;9.65;;;5.60;;
22780;SDS011;11557;50.884;4.322;2024-03-06T01:46:41;7.30;;;5.97;;
22780;SDS011;11557;50.884;4.322;2024-03-06T01:49:08;9.63;;;5.95;;
22780;SDS011;11557;50.884;4.322;2024-03-06T01:51:34;9.95;;;6.28;;
22780;SDS011;11557;50.884;4.322;2024-03-06T01:54:01;9.38;;;5.93;;
22780;SDS011;11557;50.884;4.322;2024-03-06T01:56:29;9.15;;;5.85;;
22780;SDS011;11557;50.884;4.322;2024-03-06T01:59:00;7.05;;;5.40;;
22780;SDS011;11557;50.884;4.322;2024-03-06T02:01:27;9.50;;;5.88;;
22780;SDS011;11557;50.884;4.322;2024-03-06T02:03:53;7.80;;;6.18;;
22780;SDS011;11557;50.884;4.322;2024-03-06T02:06:19;7.93;;;6.55;;
22780;SDS011;11557;50.884;4.322;2024-03-06T02:08:46;8.00;;;6.18;;
22780;SDS011;11557;50.884;4.322;2024-03-06T02:11:12;8.10;;;6.20;;
22780;SDS011;11557;50.884;4.322;2024-03-06T02:13:39;8.15;;;5.97;;
22780;SDS011;11557;50.884;4.322;2024-03-06T02:16:05;11.57;;;6.28;;
22780;SDS011;11557;50.884;4.322;2024-03-06T02:18:31;9.05;;;5.60;;
22780;SDS011;11557;50.884;4.322;2024-03-06T02:20:57;7.72;;;5.70;;
22780;SDS011;11557;50.884;4.322;2024-03-06T02:23:23;8.30;;;5.90;;
22780;SDS011;11557;50.884;4.322;2024-03-06T02:25:48;8.05;;;5.88;;
22780;SDS011;11557;50.884;4.322;2024-03-06T02:28:15;9.45;;;6.03;;
22780;SDS011;11557;50.884;4.322;2024-03-06T02:30:41;9.18;;;6.05;;
22780;SDS011;11557;50.884;4.322;2024-03-06T02:33:08;9.15;;;6.03;;
22780;SDS011;11557;50.884;4.322;2024-03-06T02:35:36;10.18;;;6.38;;
22780;SDS011;11557;50.884;4.322;2024-03-06T02:38:03;9.68;;;6.60;;
22780;SDS011;11557;50.884;4.322;2024-03-06T02:40:32;9.75;;;6.43;;
22780;SDS011;11557;50.884;4.322;2024-03-06T02:42:58;8.00;;;6.60;;
22780;SDS011;11557;50.884;4.322;2024-03-06T02:45:24;8.27;;;6.10;;
22780;SDS011;11557;50.884;4.322;2024-03-06T02:47:50;11.85;;;6.10;;
22780;SDS011;11557;50.884;4.322;2024-03-06T02:50:15;8.40;;;6.25;;
22780;SDS011;11557;50.884;4.322;2024-03-06T02:52:41;8.93;;;6.22;;
22780;SDS011;11557;50.884;4.322;2024-03-06T02:55:07;9.38;;;6.47;;
22780;SDS011;11557;50.884;4.322;2024-03-06T02:57:33;9.25;;;6.72;;
22780;SDS011;11557;50.884;4.322;2024-03-06T02:59:58;8.73;;;6.20;;
22780;SDS011;11557;50.884;4.322;2024-03-06T03:02:24;7.65;;;5.82;;
22780;SDS011;11557;50.884;4.322;2024-03-06T03:04:51;9.75;;;6.00;;
22780;SDS011;11557;50.884;4.322;2024-03-06T03:07:19;10.07;;;6.45;;
22780;SDS011;11557;50.884;4.322;2024-03-06T03:09:46;9.13;;;6.00;;
22780;SDS011;11557;50.884;4.322;2024-03-06T03:12:15;7.45;;;5.97;;
22780;SDS011;11557;50.884;4.322;2024-03-06T03:14:40;7.63;;;6.07;;
22780;SDS011;11557;50.884;4.322;2024-03-06T03:17:06;10.02;;;6.32;;
22780;SDS011;11557;50.884;4.322;2024-03-06T03:19:32;10.45;;;6.93;;
22780;SDS011;11557;50.884;4.322;2024-03-06T03:21:58;14.30;;;9.35;;
22780;SDS011;11557;50.884;4.322;2024-03-06T03:24:25;12.75;;;7.53;;
22780;SDS011;11557;50.884;4.322;2024-03-06T03:26:51;11.88;;;7.80;;
22780;SDS011;11557;50.884;4.322;2024-03-06T03:29:17;11.07;;;7.03;;
22780;SDS011;11557;50.884;4.322;2024-03-06T03:31:43;10.48;;;6.65;;
22780;SDS011;11557;50.884;4.322;2024-03-06T03:34:09;8.82;;;6.55;;
22780;SDS011;11557;50.884;4.322;2024-03-06T03:36:39;12.00;;;7.00;;
22780;SDS011;11557;50.884;4.322;2024-03-06T03:39:11;11.35;;;7.40;;
22780;SDS011;11557;50.884;4.322;2024-03-06T03:41:46;14.52;;;7.82;;
22780;SDS011;11557;50.884;4.322;2024-03-06T03:44:15;11.77;;;8.13;;
22780;SDS011;11557;50.884;4.322;2024-03-06T03:46:44;9.77;;;6.60;;
22780;SDS011;11557;50.884;4.322;2024-03-06T03:49:13;11.18;;;6.63;;
22780;SDS011;11557;50.884;4.322;2024-03-06T03:51:39;11.02;;;7.15;;
22780;SDS011;11557;50.884;4.322;2024-03-06T03:54:05;10.95;;;7.35;;
22780;SDS011;11557;50.884;4.322;2024-03-06T03:56:31;13.52;;;8.75;;
22780;SDS011;11557;50.884;4.322;2024-03-06T03:58:58;12.75;;;8.20;;
22780;SDS011;11557;50.884;4.322;2024-03-06T04:01:27;10.90;;;7.82;;
22780;SDS011;11557;50.884;4.322;2024-03-06T04:03:52;10.82;;;6.55;;
22780;SDS011;11557;50.884;4.322;2024-03-06T04:06:18;7.95;;;6.30;;
22780;SDS011;11557;50.884;4.322;2024-03-06T04:08:44;12.05;;;7.22;;
22780;SDS011;11557;50.884;4.322;2024-03-06T04:11:09;9.65;;;6.45;;
22780;SDS011;11557;50.884;4.322;2024-03-06T04:13:38;9.25;;;7.05;;
22780;SDS011;11557;50.884;4.322;2024-03-06T04:16:04;10.48;;;6.72;;
22780;SDS011;11557;50.884;4.322;2024-03-06T04:18:30;9.85;;;6.30;;
22780;SDS011;11557;50.884;4.322;2024-03-06T04:21:05;10.15;;;6.93;;
22780;SDS011;11557;50.884;4.322;2024-03-06T04:23:32;8.77;;;6.30;;
22780;SDS011;11557;50.884;4.322;2024-03-06T04:26:01;9.43;;;6.07;;
22780;SDS011;11557;50.884;4.322;2024-03-06T04:28:29;8.52;;;6.75;;
22780;SDS011;11557;50.884;4.322;2024-03-06T04:30:55;11.02;;;5.72;;
22780;SDS011;11557;50.884;4.322;2024-03-06T04:33:21;7.70;;;5.97;;
22780;SDS011;11557;50.884;4.322;2024-03-06T04:35:47;10.52;;;6.60;;
22780;SDS011;11557;50.884;4.322;2024-03-06T04:38:15;9.02;;;6.90;;
22780;SDS011;11557;50.884;4.322;2024-03-06T04:40:41;7.93;;;6.25;;
22780;SDS011;11557;50.884;4.322;2024-03-06T04:43:07;9.75;;;6.68;;
22780;SDS011;11557;50.884;4.322;2024-03-06T04:45:33;12.57;;;7.25;;
22780;SDS011;11557;50.884;4.322;2024-03-06T04:47:58;10.25;;;6.68;;
22780;SDS011;11557;50.884;4.322;2024-03-06T04:50:24;8.13;;;6.22;;
22780;SDS011;11557;50.884;4.322;2024-03-06T04:52:50;7.75;;;6.28;;
22780;SDS011;11557;50.884;4.322;2024-03-06T04:55:16;10.18;;;6.63;;
22780;SDS011;11557;50.884;4.322;2024-03-06T04:57:47;10.43;;;7.03;;
22780;SDS011;11557;50.884;4.322;2024-03-06T05:00:13;12.85;;;7.13;;
22780;SDS011;11557;50.884;4.322;2024-03-06T05:02:39;8.70;;;6.93;;
22780;SDS011;11557;50.884;4.322;2024-03-06T05:05:06;9.50;;;6.60;;
22780;SDS011;11557;50.884;4.322;2024-03-06T05:07:33;9.02;;;6.68;;
22780;SDS011;11557;50.884;4.322;2024-03-06T05:09:59;9.75;;;6.53;;
22780;SDS011;11557;50.884;4.322;2024-03-06T05:12:26;9.95;;;7.07;;
22780;SDS011;11557;50.884;4.322;2024-03-06T05:14:52;10.70;;;7.47;;
22780;SDS011;11557;50.884;4.322;2024-03-06T05:17:18;9.60;;;6.63;;
22780;SDS011;11557;50.884;4.322;2024-03-06T05:19:45;9.20;;;6.75;;
22780;SDS011;11557;50.884;4.322;2024-03-06T05:22:12;11.15;;;6.93;;
22780;SDS011;11557;50.884;4.322;2024-03-06T05:24:39;11.60;;;7.00;;
22780;SDS011;11557;50.884;4.322;2024-03-06T05:27:05;9.30;;;7.05;;
22780;SDS011;11557;50.884;4.322;2024-03-06T05:29:31;8.70;;;6.95;;
22780;SDS011;11557;50.884;4.322;2024-03-06T05:31:57;11.38;;;6.72;;
22780;SDS011;11557;50.884;4.322;2024-03-06T05:34:23;13.05;;;7.35;;
22780;SDS011;11557;50.884;4.322;2024-03-06T05:36:49;11.25;;;7.13;;
22780;SDS011;11557;50.884;4.322;2024-03-06T05:39:15;10.10;;;7.65;;
22780;SDS011;11557;50.884;4.322;2024-03-06T05:41:44;11.77;;;7.28;;
22780;SDS011;11557;50.884;4.322;2024-03-06T05:44:09;9.57;;;7.55;;
22780;SDS011;11557;50.884;4.322;2024-03-06T05:46:35;9.63;;;6.75;;
22780;SDS011;11557;50.884;4.322;2024-03-06T05:49:02;9.77;;;7.00;;
22780;SDS011;11557;50.884;4.322;2024-03-06T05:51:28;10.35;;;7.35;;
22780;SDS011;11557;50.884;4.322;2024-03-06T05:53:54;9.65;;;7.25;;
22780;SDS011;11557;50.884;4.322;2024-03-06T05:56:19;11.45;;;7.68;;
22780;SDS011;11557;50.884;4.322;2024-03-06T05:58:45;9.13;;;6.97;;
22780;SDS011;11557;50.884;4.322;2024-03-06T06:01:17;12.55;;;7.28;;
22780;SDS011;11557;50.884;4.322;2024-03-06T06:03:47;9.32;;;6.88;;
22780;SDS011;11557;50.884;4.322;2024-03-06T06:06:16;12.75;;;7.45;;
22780;SDS011;11557;50.884;4.322;2024-03-06T06:08:44;12.70;;;7.53;;
22780;SDS011;11557;50.884;4.322;2024-03-06T06:11:10;11.07;;;7.72;;
22780;SDS011;11557;50.884;4.322;2024-03-06T06:13:37;11.57;;;7.63;;
22780;SDS011;11557;50.884;4.322;2024-03-06T06:16:04;11.93;;;6.90;;
22780;SDS011;11557;50.884;4.322;2024-03-06T06:18:31;15.00;;;7.80;;
22780;SDS011;11557;50.884;4.322;2024-03-06T06:20:57;11.77;;;7.43;;
22780;SDS011;11557;50.884;4.322;2024-03-06T06:23:23;12.70;;;8.18;;
22780;SDS011;11557;50.884;4.322;2024-03-06T06:25:49;10.70;;;8.10;;
22780;SDS011;11557;50.884;4.322;2024-03-06T06:28:14;11.07;;;7.32;;
22780;SDS011;11557;50.884;4.322;2024-03-06T06:30:40;12.35;;;8.20;;
22780;SDS011;11557;50.884;4.322;2024-03-06T06:33:06;10.52;;;7.60;;
22780;SDS011;11557;50.884;4.322;2024-03-06T06:35:33;15.10;;;7.38;;
22780;SDS011;11557;50.884;4.322;2024-03-06T06:37:59;13.82;;;7.88;;
22780;SDS011;11557;50.884;4.322;2024-03-06T06:40:26;12.25;;;7.75;;
22780;SDS011;11557;50.884;4.322;2024-03-06T06:42:53;11.20;;;7.45;;
22780;SDS011;11557;50.884;4.322;2024-03-06T06:45:19;10.52;;;6.97;;
22780;SDS011;11557;50.884;4.322;2024-03-06T06:47:47;14.10;;;7.78;;
22780;SDS011;11557;50.884;4.322;2024-03-06T06:50:13;14.00;;;8.52;;
22780;SDS011;11557;50.884;4.322;2024-03-06T06:52:39;10.63;;;7.43;;
22780;SDS011;11557;50.884;4.322;2024-03-06T06:55:05;13.57;;;8.25;;
22780;SDS011;11557;50.884;4.322;2024-03-06T06:57:31;12.93;;;8.35;;
22780;SDS011;11557;50.884;4.322;2024-03-06T06:59:58;13.60;;;8.00;;
22780;SDS011;11557;50.884;4.322;2024-03-06T07:02:25;14.00;;;8.18;;
22780;SDS011;11557;50.884;4.322;2024-03-06T07:04:51;14.27;;;8.35;;
22780;SDS011;11557;50.884;4.322;2024-03-06T07:07:17;12.80;;;9.18;;
22780;SDS011;11557;50.884;4.322;2024-03-06T07:09:43;12.80;;;8.50;;
22780;SDS011;11557;50.884;4.322;2024-03-06T07:12:09;16.92;;;8.63;;
22780;SDS011;11557;50.884;4.322;2024-03-06T07:14:34;21.52;;;9.55;;
22780;SDS011;11557;50.884;4.322;2024-03-06T07:17:00;14.98;;;9.77;;
22780;SDS011;11557;50.884;4.322;2024-03-06T07:19:26;13.10;;;9.32;;
22780;SDS011;11557;50.884;4.322;2024-03-06T07:21:52;14.25;;;8.90;;
22780;SDS011;11557;50.884;4.322;2024-03-06T07:24:18;21.20;;;9.02;;
22780;SDS011;11557;50.884;4.322;2024-03-06T07:26:44;13.43;;;8.30;;
22780;SDS011;11557;50.884;4.322;2024-03-06T07:29:10;14.00;;;8.38;;
22780;SDS011;11557;50.884;4.322;2024-03-06T07:31:40;15.32;;;8.93;;
22780;SDS011;11557;50.884;4.322;2024-03-06T07:34:07;16.88;;;10.10;;
22780;SDS011;11557;50.884;4.322;2024-03-06T07:36:33;18.20;;;9.77;;
22780;SDS011;11557;50.884;4.322;2024-03-06T07:39:00;19.60;;;9.65;;
22780;SDS011;11557;50.884;4.322;2024-03-06T07:41:29;11.98;;;8.80;;
22780;SDS011;11557;50.884;4.322;2024-03-06T07:43:58;14.93;;;9.85;;
22780;SDS011;11557;50.884;4.322;2024-03-06T07:46:24;15.43;;;10.27;;
22780;SDS011;11557;50.884;4.322;2024-03-06T07:48:50;16.25;;;9.70;;
22780;SDS011;11557;50.884;4.322;2024-03-06T07:51:16;20.05;;;10.23;;
22780;SDS011;11557;50.884;4.322;2024-03-06T07:53:43;14.68;;;9.02;;
22780;SDS011;11557;50.884;4.322;2024-03-06T07:56:11;15.32;;;8.82;;
22780;SDS011;11557;50.884;4.322;2024-03-06T07:58:37;15.50;;;9.38;;
22780;SDS011;11557;50.884;4.322;2024-03-06T08:01:03;12.15;;;8.80;;
22780;SDS011;11557;50.884;4.322;2024-03-06T08:03:29;15.90;;;9.38;;
22780;SDS011;11557;50.884;4.322;2024-03-06T08:05:55;14.05;;;9.38;;
22780;SDS011;11557;50.884;4.322;2024-03-06T08:08:21;15.55;;;9.48;;
22780;SDS011;11557;50.884;4.322;2024-03-06T08:10:47;13.23;;;9.05;;
22780;SDS011;11557;50.884;4.322;2024-03-06T08:13:13;14.00;;;8.15;;
22780;SDS011;11557;50.884;4.322;2024-03-06T08:15:39;13.40;;;8.52;;
22780;SDS011;11557;50.884;4.322;2024-03-06T08:18:05;16.50;;;8.63;;
22780;SDS011;11557;50.884;4.322;2024-03-06T08:20:31;15.48;;;8.27;;
22780;SDS011;11557;50.884;4.322;2024-03-06T08:22:58;16.95;;;9.45;;
22780;SDS011;11557;50.884;4.322;2024-03-06T08:25:23;12.50;;;9.05;;
22780;SDS011;11557;50.884;4.322;2024-03-06T08:27:49;11.63;;;8.05;;
22780;SDS011;11557;50.884;4.322;2024-03-06T08:30:15;14.15;;;7.22;;
22780;SDS011;11557;50.884;4.322;2024-03-06T08:32:41;13.52;;;7.93;;
22780;SDS011;11557;50.884;4.322;2024-03-06T08:35:09;10.68;;;7.13;;
22780;SDS011;11557;50.884;4.322;2024-03-06T08:37:40;16.23;;;7.85;;
22780;SDS011;11557;50.884;4.322;2024-03-06T08:40:06;11.15;;;7.43;;
22780;SDS011;11557;50.884;4.322;2024-03-06T08:42:35;11.75;;;8.20;;
22780;SDS011;11557;50.884;4.322;2024-03-06T08:45:01;9.77;;;7.03;;
22780;SDS011;11557;50.884;4.322;2024-03-06T08:47:27;13.27;;;7.25;;
22780;SDS011;11557;50.884;4.322;2024-03-06T08:49:53;16.23;;;7.05;;
22780;SDS011;11557;50.884;4.322;2024-03-06T08:52:19;11.75;;;7.05;;
22780;SDS011;11557;50.884;4.322;2024-03-06T08:54:46;9.60;;;7.10;;
22780;SDS011;11557;50.884;4.322;2024-03-06T08:57:12;10.38;;;6.68;;
22780;SDS011;11557;50.884;4.322;2024-03-06T08:59:37;11.18;;;7.38;;
22780;SDS011;11557;50.884;4.322;2024-03-06T09:02:13;10.45;;;6.88;;
22780;SDS011;11557;50.884;4.322;2024-03-06T09:04:40;10.00;;;7.13;;
22780;SDS011;11557;50.884;4.322;2024-03-06T09:07:06;11.05;;;8.45;;
22780;SDS011;11557;50.884;4.322;2024-03-06T09:09:32;14.18;;;7.40;;
22780;SDS011;11557;50.884;4.322;2024-03-06T09:12:02;12.05;;;7.70;;
22780;SDS011;11557;50.884;4.322;2024-03-06T09:14:30;13.10;;;8.00;;
22780;SDS011;11557;50.884;4.322;2024-03-06T09:16:57;9.20;;;6.45;;
22780;SDS011;11557;50.884;4.322;2024-03-06T09:19:22;10.00;;;5.95;;
22780;SDS011;11557;50.884;4.322;2024-03-06T09:21:48;10.90;;;5.88;;
22780;SDS011;11557;50.884;4.322;2024-03-06T09:24:13;7.85;;;5.70;;
22780;SDS011;11557;50.884;4.322;2024-03-06T09:26:39;7.03;;;5.40;;
22780;SDS011;11557;50.884;4.322;2024-03-06T09:29:05;7.28;;;5.07;;
22780;SDS011;11557;50.884;4.322;2024-03-06T09:31:30;6.65;;;4.60;;
22780;SDS011;11557;50.884;4.322;2024-03-06T09:33:56;7.80;;;5.03;;
22780;SDS011;11557;50.884;4.322;2024-03-06T09:36:22;5.82;;;4.20;;
22780;SDS011;11557;50.884;4.322;2024-03-06T09:38:51;6.32;;;5.15;;
22780;SDS011;11557;50.884;4.322;2024-03-06T09:41:17;8.00;;;4.88;;
22780;SDS011;11557;50.884;4.322;2024-03-06T09:43:43;7.75;;;4.93;;
22780;SDS011;11557;50.884;4.322;2024-03-06T09:46:10;6.05;;;4.75;;
22780;SDS011;11557;50.884;4.322;2024-03-06T09:48:35;5.93;;;4.68;;
22780;SDS011;11557;50.884;4.322;2024-03-06T09:51:06;7.50;;;4.60;;
22780;SDS011;11557;50.884;4.322;2024-03-06T09:53:32;7.70;;;5.10;;
22780;SDS011;11557;50.884;4.322;2024-03-06T09:55:58;6.95;;;5.15;;
22780;SDS011;11557;50.884;4.322;2024-03-06T09:58:25;6.65;;;4.50;;
22780;SDS011;11557;50.884;4.322;2024-03-06T10:00:51;8.48;;;4.60;;
22780;SDS011;11557;50.884;4.322;2024-03-06T10:03:18;6.45;;;5.25;;
22780;SDS011;11557;50.884;4.322;2024-03-06T10:05:45;9.20;;;5.55;;
22780;SDS011;11557;50.884;4.322;2024-03-06T10:08:11;6.35;;;4.43;;
22780;SDS011;11557;50.884;4.322;2024-03-06T10:10:41;11.05;;;4.68;;
22780;SDS011;11557;50.884;4.322;2024-03-06T10:13:08;8.18;;;4.57;;
22780;SDS011;11557;50.884;4.322;2024-03-06T10:15:34;5.85;;;3.92;;
22780;SDS011;11557;50.884;4.322;2024-03-06T10:20:38;7.95;;;4.80;;
22780;SDS011;11557;50.884;4.322;2024-03-06T10:23:04;6.47;;;4.70;;
22780;SDS011;11557;50.884;4.322;2024-03-06T10:25:29;6.18;;;4.35;;
22780;SDS011;11557;50.884;4.322;2024-03-06T10:30:32;6.18;;;4.47;;
22780;SDS011;11557;50.884;4.322;2024-03-06T10:33:07;7.15;;;4.45;;
22780;SDS011;11557;50.884;4.322;2024-03-06T10:35:34;7.30;;;4.55;;
22780;SDS011;11557;50.884;4.322;2024-03-06T10:38:02;5.30;;;4.10;;
22780;SDS011;11557;50.884;4.322;2024-03-06T10:40:33;7.38;;;3.88;;
22780;SDS011;11557;50.884;4.322;2024-03-06T10:43:00;7.75;;;4.68;;
22780;SDS011;11557;50.884;4.322;2024-03-06T10:48:08;6.03;;;4.50;;
22780;SDS011;11557;50.884;4.322;2024-03-06T10:50:38;7.30;;;3.78;;
22780;SDS011;11557;50.884;4.322;2024-03-06T10:53:12;4.63;;;3.50;;
22780;SDS011;11557;50.884;4.322;2024-03-06T10:55:40;5.85;;;3.67;;
22780;SDS011;11557;50.884;4.322;2024-03-06T10:58:09;5.18;;;4.10;;
22780;SDS011;11557;50.884;4.322;2024-03-06T11:00:44;6.68;;;4.25;;
22780;SDS011;11557;50.884;4.322;2024-03-06T11:03:14;6.70;;;3.78;;
22780;SDS011;11557;50.884;4.322;2024-03-06T11:05:44;6.35;;;3.83;;
22780;SDS011;11557;50.884;4.322;2024-03-06T11:08:15;4.72;;;3.50;;
22780;SDS011;11557;50.884;4.322;2024-03-06T11:10:44;4.88;;;3.22;;
22780;SDS011;11557;50.884;4.322;2024-03-06T11:15:45;4.80;;;3.08;;
22780;SDS011;11557;50.884;4.322;2024-03-06T11:23:29;7.45;;;3.55;;
22780;SDS011;11557;50.884;4.322;2024-03-06T11:28:28;5.93;;;3.10;;
22780;SDS011;11557;50.884;4.322;2024-03-06T11:31:01;7.97;;;3.75;;
22780;SDS011;11557;50.884;4.322;2024-03-06T11:33:42;5.05;;;3.33;;
22780;SDS011;11557;50.884;4.322;2024-03-06T11:36:22;3.75;;;3.13;;
22780;SDS011;11557;50.884;4.322;2024-03-06T11:38:57;6.93;;;3.47;;
22780;SDS011;11557;50.884;4.322;2024-03-06T11:44:12;5.57;;;3.08;;
22780;SDS011;11557;50.884;4.322;2024-03-06T11:46:50;6.28;;;3.47;;
22780;SDS011;11557;50.884;4.322;2024-03-06T11:49:32;8.23;;;3.88;;
22780;SDS011;11557;50.884;4.322;2024-03-06T11:52:03;5.18;;;2.90;;
22780;SDS011;11557;50.884;4.322;2024-03-06T11:54:31;7.50;;;2.45;;
22780;SDS011;11557;50.884;4.322;2024-03-06T11:56:59;4.55;;;2.05;;
22780;SDS011;11557;50.884;4.322;2024-03-06T11:59:26;5.32;;;1.88;;
22780;SDS011;11557;50.884;4.322;2024-03-06T12:01:53;4.97;;;2.05;;
22780;SDS011;11557;50.884;4.322;2024-03-06T12:04:32;3.97;;;2.33;;
22780;SDS011;11557;50.884;4.322;2024-03-06T12:06:59;5.30;;;2.70;;
22780;SDS011;11557;50.884;4.322;2024-03-06T12:09:30;5.22;;;2.88;;
22780;SDS011;11557;50.884;4.322;2024-03-06T12:11:55;5.55;;;3.13;;
22780;SDS011;11557;50.884;4.322;2024-03-06T12:14:22;8.15;;;3.28;;
22780;SDS011;11557;50.884;4.322;2024-03-06T12:19:41;8.38;;;2.90;;
22780;SDS011;11557;50.884;4.322;2024-03-06T12:22:12;6.22;;;3.00;;
22780;SDS011;11557;50.884;4.322;2024-03-06T12:24:40;7.40;;;3.47;;
22780;SDS011;11557;50.884;4.322;2024-03-06T12:27:11;4.40;;;3.10;;
22780;SDS011;11557;50.884;4.322;2024-03-06T12:29:38;5.30;;;2.95;;
22780;SDS011;11557;50.884;4.322;2024-03-06T12:32:15;7.85;;;2.85;;
22780;SDS011;11557;50.884;4.322;2024-03-06T12:34:42;4.35;;;2.65;;
22780;SDS011;11557;50.884;4.322;2024-03-06T12:37:08;7.53;;;3.28;;
22780;SDS011;11557;50.884;4.322;2024-03-06T12:39:35;6.40;;;2.30;;
22780;SDS011;11557;50.884;4.322;2024-03-06T12:42:01;5.22;;;2.80;;
22780;SDS011;11557;50.884;4.322;2024-03-06T12:44:26;4.40;;;2.50;;
22780;SDS011;11557;50.884;4.322;2024-03-06T12:46:52;6.20;;;2.50;;
22780;SDS011;11557;50.884;4.322;2024-03-06T12:49:18;3.22;;;2.50;;
22780;SDS011;11557;50.884;4.322;2024-03-06T12:51:43;7.32;;;2.88;;
22780;SDS011;11557;50.884;4.322;2024-03-06T12:54:09;5.93;;;2.85;;
22780;SDS011;11557;50.884;4.322;2024-03-06T12:56:35;7.40;;;3.28;;
22780;SDS011;11557;50.884;4.322;2024-03-06T12:59:01;3.90;;;3.20;;
22780;SDS011;11557;50.884;4.322;2024-03-06T13:01:26;6.38;;;2.95;;
22780;SDS011;11557;50.884;4.322;2024-03-06T13:03:52;9.63;;;3.63;;
22780;SDS011;11557;50.884;4.322;2024-03-06T13:06:19;5.47;;;3.00;;
22780;SDS011;11557;50.884;4.322;2024-03-06T13:08:44;5.72;;;3.05;;
22780;SDS011;11557;50.884;4.322;2024-03-06T13:11:10;6.65;;;3.03;;
22780;SDS011;11557;50.884;4.322;2024-03-06T13:13:36;4.93;;;2.65;;
22780;SDS011;11557;50.884;4.322;2024-03-06T13:16:02;9.07;;;2.95;;
22780;SDS011;11557;50.884;4.322;2024-03-06T13:18:28;4.88;;;3.13;;
22780;SDS011;11557;50.884;4.322;2024-03-06T13:20:54;6.07;;;3.30;;
22780;SDS011;11557;50.884;4.322;2024-03-06T13:23:20;3.55;;;2.80;;
22780;SDS011;11557;50.884;4.322;2024-03-06T13:25:47;4.55;;;3.10;;
22780;SDS011;11557;50.884;4.322;2024-03-06T13:28:12;5.50;;;3.20;;
22780;SDS011;11557;50.884;4.322;2024-03-06T13:30:38;3.97;;;3.03;;
22780;SDS011;11557;50.884;4.322;2024-03-06T13:33:04;4.95;;;2.67;;
22780;SDS011;11557;50.884;4.322;2024-03-06T13:35:30;5.72;;;2.95;;
22780;SDS011;11557;50.884;4.322;2024-03-06T13:37:56;6.75;;;3.25;;
22780;SDS011;11557;50.884;4.322;2024-03-06T13:40:22;7.78;;;3.20;;
22780;SDS011;11557;50.884;4.322;2024-03-06T13:42:48;5.28;;;2.78;;
22780;SDS011;11557;50.884;4.322;2024-03-06T13:45:14;5.38;;;2.63;;
22780;SDS011;11557;50.884;4.322;2024-03-06T13:47:43;6.25;;;2.83;;
22780;SDS011;11557;50.884;4.322;2024-03-06T13:50:10;4.78;;;2.63;;
22780;SDS011;11557;50.884;4.322;2024-03-06T13:52:37;7.57;;;3.25;;
22780;SDS011;11557;50.884;4.322;2024-03-06T13:55:03;4.85;;;2.85;;
22780;SDS011;11557;50.884;4.322;2024-03-06T13:57:32;6.22;;;3.25;;
22780;SDS011;11557;50.884;4.322;2024-03-06T13:59:59;8.10;;;3.40;;
22780;SDS011;11557;50.884;4.322;2024-03-06T14:02:37;4.95;;;3.13;;
22780;SDS011;11557;50.884;4.322;2024-03-06T14:05:04;5.20;;;3.08;;
22780;SDS011;11557;50.884;4.322;2024-03-06T14:07:30;6.40;;;3.33;;
22780;SDS011;11557;50.884;4.322;2024-03-06T14:09:56;9.55;;;3.22;;
22780;SDS011;11557;50.884;4.322;2024-03-06T14:12:22;5.22;;;3.22;;
22780;SDS011;11557;50.884;4.322;2024-03-06T14:14:48;5.97;;;3.28;;
22780;SDS011;11557;50.884;4.322;2024-03-06T14:17:14;6.72;;;3.42;;
22780;SDS011;11557;50.884;4.322;2024-03-06T14:19:40;7.10;;;3.60;;
22780;SDS011;11557;50.884;4.322;2024-03-06T14:22:07;6.50;;;3.30;;
22780;SDS011;11557;50.884;4.322;2024-03-06T14:24:33;6.07;;;3.70;;
22780;SDS011;11557;50.884;4.322;2024-03-06T14:26:59;7.45;;;4.03;;
22780;SDS011;11557;50.884;4.322;2024-03-06T14:29:24;4.90;;;3.60;;
22780;SDS011;11557;50.884;4.322;2024-03-06T14:31:52;6.68;;;3.33;;
22780;SDS011;11557;50.884;4.322;2024-03-06T14:34:18;5.28;;;3.38;;
22780;SDS011;11557;50.884;4.322;2024-03-06T14:36:45;6.75;;;3.00;;
22780;SDS011;11557;50.884;4.322;2024-03-06T14:39:11;3.28;;;2.92;;
22780;SDS011;11557;50.884;4.322;2024-03-06T14:41:38;5.50;;;2.97;;
22780;SDS011;11557;50.884;4.322;2024-03-06T14:44:04;3.83;;;3.13;;
22780;SDS011;11557;50.884;4.322;2024-03-06T14:46:30;6.15;;;3.40;;
22780;SDS011;11557;50.884;4.322;2024-03-06T14:48:56;5.45;;;3.15;;
22780;SDS011;11557;50.884;4.322;2024-03-06T14:51:21;7.28;;;3.38;;
22780;SDS011;11557;50.884;4.322;2024-03-06T14:53:47;7.28;;;3.33;;
22780;SDS011;11557;50.884;4.322;2024-03-06T14:56:13;12.82;;;3.85;;
22780;SDS011;11557;50.884;4.322;2024-03-06T14:58:39;5.18;;;3.40;;
22780;SDS011;11557;50.884;4.322;2024-03-06T15:01:05;7.47;;;3.55;;
22780;SDS011;11557;50.884;4.322;2024-03-06T15:03:30;7.32;;;3.58;;
22780;SDS011;11557;50.884;4.322;2024-03-06T15:05:56;5.13;;;2.75;;